createdAt,value
2023-05-31T00:00:01.075Z,11.80
2023-05-31T00:02:27.742Z,8.18
2023-05-31T00:04:54.622Z,8.10
2023-05-31T00:07:21.483Z,8.30
2023-05-31T00:09:48.033Z,9.82
2023-05-31T00:12:14.687Z,7.78
2023-05-31T00:14:41.205Z,10.45
2023-05-31T00:17:47.839Z,9.18
2023-05-31T00:19:54.367Z,8.32
2023-05-31T00:22:21.060Z,8.90
2023-05-31T00:24:47.613Z,8.35
2023-05-31T00:27:14.214Z,7.03
2023-05-31T00:29:41.118Z,7.55
2023-05-31T00:32:07.924Z,7.85
2023-05-31T00:34:34.657Z,9.32
2023-05-31T00:37:01.220Z,8.13
2023-05-31T00:39:27.840Z,8.82
2023-05-31T00:41:54.440Z,11.77
2023-05-31T00:44:21.164Z,11.43
2023-05-31T00:46:47.815Z,9.45
2023-05-31T00:49:14.491Z,8.70
2023-05-31T00:51:41.422Z,8.07
2023-05-31T00:54:09.021Z,8.35
2023-05-31T00:56:35.749Z,8.30
2023-05-31T00:59:02.363Z,7.60
2023-05-31T01:01:34.115Z,9.73
2023-05-31T01:04:03.004Z,7.68
2023-05-31T01:06:36.962Z,8.98
2023-05-31T01:09:05.840Z,10.02
2023-05-31T01:11:55.217Z,9.50
2023-05-31T01:14:45.027Z,7.88
2023-05-31T01:17:21.730Z,7.97
2023-05-31T01:20:10.361Z,8.30
2023-05-31T01:22:45.189Z,8.25
2023-05-31T01:25:23.786Z,7.82
2023-05-31T01:27:51.113Z,8.70
2023-05-31T01:30:17.944Z,8.82
2023-05-31T01:32:45.911Z,8.93
2023-05-31T01:35:12.513Z,9.02
2023-05-31T01:37:39.157Z,8.68
2023-05-31T01:40:06.542Z,7.50
2023-05-31T01:42:33.327Z,8.70
2023-05-31T01:45:00.656Z,7.60
2023-05-31T01:47:27.538Z,8.45
2023-05-31T01:49:54.413Z,9.18
2023-05-31T01:52:22.060Z,8.20
2023-05-31T01:54:48.669Z,10.60
2023-05-31T01:57:15.548Z,13.00
2023-05-31T01:59:42.809Z,8.40
2023-05-31T02:02:10.697Z,7.05
2023-05-31T02:04:37.489Z,7.40
2023-05-31T02:07:04.284Z,7.97
2023-05-31T02:09:30.894Z,7.93
2023-05-31T02:11:57.497Z,9.60
2023-05-31T02:14:24.103Z,8.50
2023-05-31T02:16:50.733Z,8.48
2023-05-31T02:19:17.255Z,8.52
2023-05-31T02:21:43.895Z,8.00
2023-05-31T02:24:10.599Z,10.55
2023-05-31T02:26:37.443Z,8.93
2023-05-31T02:29:04.267Z,8.90
2023-05-31T02:31:31.147Z,9.63
2023-05-31T02:33:57.753Z,11.57
2023-05-31T02:36:29.827Z,9.15
2023-05-31T02:38:56.705Z,9.07
2023-05-31T02:41:23.235Z,10.18
2023-05-31T02:43:49.795Z,11.10
2023-05-31T02:46:16.957Z,8.65
2023-05-31T02:48:44.234Z,8.68
2023-05-31T02:51:11.163Z,8.60
2023-05-31T02:54:13.220Z,8.85
2023-05-31T02:56:40.092Z,8.23
2023-05-31T02:59:19.004Z,7.80
2023-05-31T03:01:52.797Z,9.10
2023-05-31T03:04:32.929Z,8.98
2023-05-31T03:07:00.060Z,8.70
2023-05-31T03:09:29.220Z,9.60
2023-05-31T03:11:56.150Z,8.20
2023-05-31T03:14:23.541Z,9.48
2023-05-31T03:16:53.928Z,9.27
2023-05-31T03:19:20.882Z,8.32
2023-05-31T03:21:50.883Z,8.00
2023-05-31T03:24:17.658Z,8.93
2023-05-31T03:26:47.350Z,8.90
2023-05-31T03:29:13.974Z,9.52
2023-05-31T03:31:40.544Z,8.32
2023-05-31T03:34:07.213Z,8.52
2023-05-31T03:36:33.775Z,8.38
2023-05-31T03:39:07.171Z,8.70
2023-05-31T03:41:33.912Z,7.13
2023-05-31T03:44:00.749Z,8.35
2023-05-31T03:46:27.424Z,7.43
2023-05-31T03:48:55.976Z,9.10
2023-05-31T03:51:24.297Z,7.80
2023-05-31T03:53:50.929Z,8.10
2023-05-31T03:56:18.065Z,8.48
2023-05-31T03:58:44.669Z,8.90
2023-05-31T04:01:11.632Z,8.65
2023-05-31T04:03:40.928Z,11.10
2023-05-31T04:06:08.422Z,8.77
2023-05-31T04:08:35.217Z,8.10
2023-05-31T04:11:02.061Z,9.45
2023-05-31T04:13:28.873Z,9.30
2023-05-31T04:15:55.694Z,10.40
2023-05-31T04:18:22.417Z,9.80
2023-05-31T04:20:49.356Z,9.68
2023-05-31T04:23:15.975Z,10.98
2023-05-31T04:25:45.575Z,10.07
2023-05-31T04:28:14.525Z,9.15
2023-05-31T04:30:41.152Z,9.85
2023-05-31T04:33:07.856Z,10.55
2023-05-31T04:35:36.412Z,12.63
2023-05-31T04:38:03.764Z,8.27
2023-05-31T04:40:33.061Z,8.98
2023-05-31T04:43:05.432Z,9.07
2023-05-31T04:45:34.005Z,9.50
2023-05-31T04:48:01.888Z,9.85
2023-05-31T04:50:31.050Z,10.43
2023-05-31T04:52:58.680Z,10.60
2023-05-31T04:55:25.687Z,10.98
2023-05-31T04:57:52.857Z,10.90
2023-05-31T05:00:21.013Z,11.38
2023-05-31T05:03:11.609Z,9.68
2023-05-31T05:05:39.172Z,9.57
2023-05-31T05:08:06.257Z,9.27
2023-05-31T05:10:36.753Z,12.57
2023-05-31T05:13:03.360Z,9.85
2023-05-31T05:15:30.800Z,13.00
2023-05-31T05:17:57.546Z,11.63
2023-05-31T05:20:24.852Z,9.30
2023-05-31T05:22:53.545Z,11.60
2023-05-31T05:25:21.902Z,13.75
2023-05-31T05:27:48.710Z,8.70
2023-05-31T05:30:15.716Z,11.95
2023-05-31T05:32:42.746Z,9.95
2023-05-31T05:35:09.686Z,11.90
2023-05-31T05:37:36.575Z,12.13
2023-05-31T05:40:03.414Z,9.65
2023-05-31T05:42:32.252Z,10.65
2023-05-31T05:44:58.939Z,12.63
2023-05-31T05:47:28.092Z,10.20
2023-05-31T05:49:54.934Z,9.63
2023-05-31T05:52:22.105Z,8.27
2023-05-31T05:54:48.716Z,9.60
2023-05-31T05:57:15.373Z,9.60
2023-05-31T05:59:45.774Z,11.23
2023-05-31T06:02:19.789Z,8.23
2023-05-31T06:04:47.746Z,9.32
2023-05-31T06:07:14.764Z,8.25
2023-05-31T06:09:42.318Z,8.55
2023-05-31T06:12:09.143Z,9.23
2023-05-31T06:14:38.536Z,8.00
2023-05-31T06:17:06.528Z,8.80
2023-05-31T06:19:33.236Z,8.13
2023-05-31T06:22:01.177Z,8.18
2023-05-31T06:24:27.784Z,13.73
2023-05-31T06:26:54.486Z,8.90
2023-05-31T06:29:26.852Z,8.55
2023-05-31T06:31:57.314Z,10.45
2023-05-31T06:34:26.380Z,11.52
2023-05-31T06:36:57.242Z,8.43
2023-05-31T06:39:23.828Z,13.43
2023-05-31T06:41:50.488Z,8.05
2023-05-31T06:44:47.832Z,8.10
2023-05-31T06:47:47.974Z,9.38
2023-05-31T06:50:20.236Z,9.00
2023-05-31T06:52:46.909Z,9.50
2023-05-31T06:55:30.757Z,9.57
2023-05-31T06:57:57.667Z,10.38
2023-05-31T07:00:24.222Z,10.40
2023-05-31T07:02:51.409Z,9.13
2023-05-31T07:05:19.081Z,11.75
2023-05-31T07:07:48.329Z,12.15
2023-05-31T07:10:15.227Z,11.13
2023-05-31T07:12:41.891Z,8.38
2023-05-31T07:15:10.088Z,11.85
2023-05-31T07:17:37.568Z,9.38
2023-05-31T07:20:06.662Z,12.95
2023-05-31T07:22:33.304Z,9.05
2023-05-31T07:25:00.083Z,12.82
2023-05-31T07:27:26.741Z,8.50
2023-05-31T07:29:53.213Z,8.15
2023-05-31T07:32:20.046Z,10.40
2023-05-31T07:35:01.565Z,11.82
2023-05-31T07:37:31.012Z,9.38
2023-05-31T07:39:57.569Z,7.95
2023-05-31T07:42:24.250Z,9.90
2023-05-31T07:44:51.128Z,11.60
2023-05-31T07:47:18.263Z,8.60
2023-05-31T07:49:44.782Z,9.25
2023-05-31T07:52:11.659Z,10.15
2023-05-31T07:54:38.298Z,9.13
2023-05-31T07:57:04.995Z,8.27
2023-05-31T07:59:31.841Z,11.65
2023-05-31T08:01:58.556Z,11.00
2023-05-31T08:04:25.187Z,10.95
2023-05-31T08:06:51.869Z,11.25
2023-05-31T08:09:18.525Z,8.80
2023-05-31T08:11:45.145Z,11.10
2023-05-31T08:14:12.128Z,11.38
2023-05-31T08:16:40.841Z,11.32
2023-05-31T08:19:07.772Z,10.15
2023-05-31T08:21:37.585Z,10.70
2023-05-31T08:24:06.663Z,11.80
2023-05-31T08:26:33.959Z,12.95
2023-05-31T08:29:00.614Z,13.40
2023-05-31T08:31:27.207Z,13.05
2023-05-31T08:33:55.329Z,9.93
2023-05-31T08:36:22.233Z,14.13
2023-05-31T08:38:48.787Z,12.50
2023-05-31T08:41:15.705Z,12.15
2023-05-31T08:43:42.446Z,14.50
2023-05-31T08:46:09.345Z,16.17
2023-05-31T08:48:44.563Z,11.18
2023-05-31T08:51:11.826Z,11.55
2023-05-31T08:53:39.855Z,12.18
2023-05-31T08:56:07.718Z,10.77
2023-05-31T08:58:37.255Z,13.10
2023-05-31T09:01:04.010Z,13.02
2023-05-31T09:03:32.025Z,13.13
2023-05-31T09:05:58.601Z,10.00
2023-05-31T09:08:25.842Z,11.02
2023-05-31T09:10:52.475Z,12.45
2023-05-31T09:13:19.531Z,9.98
2023-05-31T09:15:47.558Z,13.90
2023-05-31T09:18:15.959Z,11.55
2023-05-31T09:20:42.956Z,14.05
2023-05-31T09:23:10.640Z,12.80
2023-05-31T09:25:50.252Z,13.07
2023-05-31T09:28:18.852Z,13.32
2023-05-31T09:30:45.361Z,12.35
2023-05-31T09:33:13.649Z,12.13
2023-05-31T09:35:57.122Z,16.13
2023-05-31T09:38:31.698Z,11.32
2023-05-31T09:40:59.691Z,14.45
2023-05-31T09:43:26.287Z,13.27
2023-05-31T09:45:52.842Z,14.82
2023-05-31T09:48:19.881Z,12.18
2023-05-31T09:50:47.508Z,12.60
2023-05-31T09:53:17.455Z,12.00
2023-05-31T09:55:44.084Z,10.77
2023-05-31T09:58:31.500Z,15.57
2023-05-31T10:00:59.995Z,13.68
2023-05-31T10:03:28.458Z,13.63
2023-05-31T10:05:55.482Z,11.65
2023-05-31T10:08:23.638Z,13.50
2023-05-31T10:10:50.265Z,11.18
2023-05-31T10:13:18.471Z,13.98
2023-05-31T10:15:47.963Z,12.55
2023-05-31T10:18:17.922Z,12.23
2023-05-31T10:21:04.477Z,12.98
2023-05-31T10:23:33.481Z,15.40
2023-05-31T10:26:14.408Z,12.07
2023-05-31T10:28:45.992Z,15.55
2023-05-31T10:31:13.112Z,12.55
2023-05-31T10:33:41.191Z,13.68
2023-05-31T10:36:07.920Z,13.82
2023-05-31T10:38:45.068Z,13.23
2023-05-31T10:41:25.060Z,12.60
2023-05-31T10:43:59.153Z,12.15
2023-05-31T10:46:29.739Z,12.40
2023-05-31T10:48:57.214Z,10.90
2023-05-31T10:51:40.853Z,11.50
2023-05-31T10:54:07.743Z,12.52
2023-05-31T10:56:37.615Z,10.60
2023-05-31T10:59:05.232Z,12.98
2023-05-31T11:01:31.957Z,15.70
2023-05-31T11:03:59.001Z,13.27
2023-05-31T11:06:34.058Z,13.40
2023-05-31T11:09:16.233Z,15.25
2023-05-31T11:11:43.472Z,18.05
2023-05-31T11:14:27.136Z,12.88
2023-05-31T11:17:07.579Z,14.68
2023-05-31T11:19:37.567Z,14.02
2023-05-31T11:22:04.183Z,13.68
2023-05-31T11:24:30.764Z,12.65
2023-05-31T11:27:01.010Z,12.10
2023-05-31T11:29:46.029Z,13.50
2023-05-31T11:32:13.490Z,13.93
2023-05-31T11:34:55.516Z,13.38
2023-05-31T11:37:24.237Z,12.85
2023-05-31T11:39:51.906Z,14.27
2023-05-31T11:42:18.567Z,14.40
2023-05-31T11:44:46.728Z,14.15
2023-05-31T11:47:19.839Z,11.60
2023-05-31T11:49:46.865Z,13.00
2023-05-31T11:52:20.129Z,17.08
2023-05-31T11:54:47.286Z,11.85
2023-05-31T11:57:14.124Z,15.00
2023-05-31T11:59:41.409Z,15.48
2023-05-31T12:02:09.029Z,17.15
2023-05-31T12:04:42.526Z,15.45
2023-05-31T12:07:13.065Z,12.55
2023-05-31T12:09:39.802Z,14.18
2023-05-31T12:12:06.573Z,14.20
2023-05-31T12:14:33.959Z,16.48
2023-05-31T12:17:07.368Z,17.50
2023-05-31T12:19:34.064Z,14.50
2023-05-31T12:22:02.183Z,11.88
2023-05-31T12:24:29.950Z,15.25
2023-05-31T12:26:56.757Z,17.83
2023-05-31T12:29:28.402Z,16.90
2023-05-31T12:32:02.524Z,15.05
2023-05-31T12:34:31.729Z,13.20
2023-05-31T12:36:59.541Z,13.35
2023-05-31T12:39:26.170Z,12.07
2023-05-31T12:41:52.852Z,18.05
2023-05-31T12:44:23.097Z,16.23
2023-05-31T12:46:51.088Z,14.27
2023-05-31T12:49:31.300Z,13.40
2023-05-31T12:52:05.356Z,12.27
2023-05-31T12:54:32.573Z,16.33
2023-05-31T12:57:00.222Z,12.52
2023-05-31T12:59:26.855Z,10.70
2023-05-31T13:01:53.664Z,18.40
2023-05-31T13:04:20.258Z,11.82
2023-05-31T13:06:46.759Z,15.18
2023-05-31T13:09:13.633Z,13.45
2023-05-31T13:11:40.902Z,12.88
2023-05-31T13:14:09.500Z,11.45
2023-05-31T13:16:38.998Z,16.50
2023-05-31T13:19:07.231Z,15.98
2023-05-31T13:21:34.592Z,15.95
2023-05-31T13:24:01.189Z,14.45
2023-05-31T13:26:30.431Z,13.32
2023-05-31T13:29:01.264Z,14.65
2023-05-31T13:31:28.331Z,13.73
2023-05-31T13:33:55.440Z,16.35
2023-05-31T13:36:22.677Z,14.40
2023-05-31T13:38:49.974Z,15.68
2023-05-31T13:41:16.821Z,18.35
2023-05-31T13:43:44.463Z,16.95
2023-05-31T13:46:12.401Z,21.60
2023-05-31T13:48:41.851Z,18.92
2023-05-31T13:51:09.581Z,14.32
2023-05-31T13:53:36.384Z,13.82
2023-05-31T13:56:04.121Z,12.98
2023-05-31T13:58:30.864Z,19.77
2023-05-31T14:00:57.629Z,15.25
2023-05-31T14:03:24.381Z,11.15
2023-05-31T14:05:51.787Z,12.13
2023-05-31T14:08:18.329Z,16.13
2023-05-31T14:10:45.154Z,14.93
2023-05-31T14:13:12.208Z,14.43
2023-05-31T14:15:38.866Z,18.48
2023-05-31T14:18:05.704Z,11.82
2023-05-31T14:20:32.371Z,13.80
2023-05-31T14:22:58.927Z,11.88
2023-05-31T14:25:25.816Z,15.52
2023-05-31T14:27:52.333Z,13.30
2023-05-31T14:30:19.000Z,14.82
2023-05-31T14:32:46.299Z,14.18
2023-05-31T14:35:14.136Z,10.88
2023-05-31T14:37:45.115Z,16.92
2023-05-31T14:40:22.289Z,15.95
2023-05-31T14:42:49.301Z,15.50
2023-05-31T14:45:15.992Z,15.18
2023-05-31T14:47:44.484Z,12.48
2023-05-31T14:50:11.450Z,15.52
2023-05-31T14:52:38.059Z,15.93
2023-05-31T14:55:04.985Z,11.93
2023-05-31T14:57:31.630Z,14.73
2023-05-31T14:59:58.324Z,16.95
2023-05-31T15:02:24.903Z,13.95
2023-05-31T15:04:51.650Z,17.95
2023-05-31T15:07:18.175Z,17.05
2023-05-31T15:09:44.907Z,17.83
2023-05-31T15:12:11.795Z,15.77
2023-05-31T15:14:38.494Z,12.25
2023-05-31T15:17:05.287Z,15.70
2023-05-31T15:19:31.849Z,13.85
2023-05-31T15:21:58.477Z,14.52
2023-05-31T15:24:25.187Z,11.60
2023-05-31T15:26:53.234Z,13.93
2023-05-31T15:29:20.251Z,18.75
2023-05-31T15:31:46.929Z,15.95
2023-05-31T15:34:13.677Z,15.45
2023-05-31T15:36:40.180Z,15.98
2023-05-31T15:39:07.050Z,16.17
2023-05-31T15:41:34.830Z,16.50
2023-05-31T15:44:03.340Z,17.27
2023-05-31T15:46:30.010Z,20.33
2023-05-31T15:48:56.627Z,14.00
2023-05-31T15:51:24.559Z,15.95
2023-05-31T15:53:52.341Z,18.13
2023-05-31T15:56:20.699Z,16.80
2023-05-31T15:58:47.349Z,17.63
2023-05-31T16:01:14.057Z,16.83
2023-05-31T16:03:41.436Z,14.52
2023-05-31T16:06:08.102Z,18.40
2023-05-31T16:08:34.870Z,16.60
2023-05-31T16:11:01.515Z,15.77
2023-05-31T16:13:28.332Z,13.02
2023-05-31T16:15:54.858Z,13.90
2023-05-31T16:18:21.563Z,15.45
2023-05-31T16:20:48.238Z,13.52
2023-05-31T16:23:14.841Z,15.90
2023-05-31T16:25:41.414Z,15.70
2023-05-31T16:28:08.033Z,13.75
2023-05-31T16:30:34.607Z,13.43
2023-05-31T16:33:01.174Z,13.65
2023-05-31T16:35:27.817Z,15.13
2023-05-31T16:37:54.702Z,15.43
2023-05-31T16:40:23.336Z,15.30
2023-05-31T16:42:50.283Z,18.15
2023-05-31T16:45:21.554Z,12.15
2023-05-31T16:47:48.379Z,12.48
2023-05-31T16:50:15.873Z,16.38
2023-05-31T16:52:42.436Z,12.98
2023-05-31T16:55:09.442Z,13.77
2023-05-31T16:57:36.408Z,12.95
2023-05-31T17:00:03.570Z,14.18
2023-05-31T17:02:30.152Z,12.98
2023-05-31T17:04:56.726Z,16.80
2023-05-31T17:07:23.612Z,15.88
2023-05-31T17:09:50.230Z,14.02
2023-05-31T17:12:16.872Z,15.90
2023-05-31T17:14:43.563Z,16.17
2023-05-31T17:17:10.303Z,12.55
2023-05-31T17:19:36.795Z,12.90
2023-05-31T17:22:03.637Z,13.07
2023-05-31T17:24:30.166Z,12.68
2023-05-31T17:26:56.828Z,15.50
2023-05-31T17:29:23.399Z,12.15
2023-05-31T17:31:50.210Z,14.35
2023-05-31T17:34:16.760Z,15.48
2023-05-31T17:36:43.443Z,17.05
2023-05-31T17:39:09.965Z,13.82
2023-05-31T17:41:36.626Z,15.00
2023-05-31T17:44:03.246Z,16.63
2023-05-31T17:46:29.987Z,13.07
2023-05-31T17:48:57.220Z,11.68
2023-05-31T17:51:24.089Z,15.55
2023-05-31T17:53:50.764Z,16.42
2023-05-31T17:56:17.408Z,16.25
2023-05-31T17:58:43.943Z,15.48
2023-05-31T18:01:10.844Z,14.35
2023-05-31T18:03:37.641Z,11.80
2023-05-31T18:06:07.418Z,13.52
2023-05-31T18:08:34.246Z,18.77
2023-05-31T18:11:01.314Z,13.15
2023-05-31T18:13:28.095Z,14.85
2023-05-31T18:15:54.735Z,16.70
2023-05-31T18:18:22.617Z,13.43
2023-05-31T18:20:49.295Z,14.73
2023-05-31T18:23:16.043Z,15.98
2023-05-31T18:25:42.572Z,15.70
2023-05-31T18:28:09.477Z,14.18
2023-05-31T18:30:36.090Z,13.82
2023-05-31T18:33:02.763Z,15.30
2023-05-31T18:35:29.482Z,15.15
2023-05-31T18:37:56.164Z,14.88
2023-05-31T18:40:22.997Z,12.85
2023-05-31T18:42:49.690Z,15.00
2023-05-31T18:45:16.495Z,18.58
2023-05-31T18:47:43.245Z,15.15
2023-05-31T18:50:10.472Z,11.85
2023-05-31T18:52:37.164Z,13.95
2023-05-31T18:55:03.831Z,14.48
2023-05-31T18:57:31.086Z,16.40
2023-05-31T18:59:58.502Z,13.50
2023-05-31T19:02:25.186Z,15.82
2023-05-31T19:04:51.761Z,17.35
2023-05-31T19:07:18.499Z,15.82
2023-05-31T19:09:45.042Z,15.23
2023-05-31T19:12:26.637Z,17.85
2023-05-31T19:14:57.739Z,15.88
2023-05-31T19:17:24.451Z,16.08
2023-05-31T19:19:51.126Z,16.23
2023-05-31T19:22:17.672Z,16.83
2023-05-31T19:24:44.468Z,13.75
2023-05-31T19:27:11.044Z,15.02
2023-05-31T19:29:37.639Z,12.40
2023-05-31T19:32:06.421Z,16.98
2023-05-31T19:34:33.287Z,12.95
2023-05-31T19:37:02.756Z,14.00
2023-05-31T19:39:29.421Z,14.52
2023-05-31T19:41:58.357Z,15.02
2023-05-31T19:44:25.066Z,16.27
2023-05-31T19:46:52.925Z,12.25
2023-05-31T19:49:19.682Z,22.52
2023-05-31T19:51:46.192Z,14.88
2023-05-31T19:54:13.027Z,17.55
2023-05-31T19:56:39.631Z,14.32
2023-05-31T19:59:06.344Z,10.85
2023-05-31T20:01:32.875Z,15.30
2023-05-31T20:03:59.659Z,16.20
2023-05-31T20:06:26.261Z,21.45
2023-05-31T20:08:52.965Z,15.93
2023-05-31T20:11:19.481Z,14.93
2023-05-31T20:13:46.147Z,12.45
2023-05-31T20:16:12.786Z,13.40
2023-05-31T20:18:39.584Z,15.13
2023-05-31T20:21:06.376Z,12.93
2023-05-31T20:23:32.983Z,16.35
2023-05-31T20:25:59.799Z,17.00
2023-05-31T20:28:26.717Z,15.23
2023-05-31T20:30:53.244Z,13.60
2023-05-31T20:33:20.704Z,19.98
2023-05-31T20:35:48.095Z,16.02
2023-05-31T20:38:14.827Z,15.55
2023-05-31T20:40:42.897Z,15.57
2023-05-31T20:43:09.636Z,14.73
2023-05-31T20:45:36.227Z,17.45
2023-05-31T20:48:02.897Z,16.88
2023-05-31T20:50:33.910Z,21.20
2023-05-31T20:53:04.453Z,21.90
2023-05-31T20:55:31.638Z,23.00
2023-05-31T20:57:58.628Z,21.75
2023-05-31T21:00:27.548Z,16.50
2023-05-31T21:02:54.934Z,17.75
2023-05-31T21:05:21.812Z,19.55
2023-05-31T21:07:48.622Z,16.73
2023-05-31T21:10:15.438Z,18.38
2023-05-31T21:12:42.066Z,18.83
2023-05-31T21:15:09.082Z,16.63
2023-05-31T21:17:35.717Z,18.98
2023-05-31T21:20:02.396Z,15.80
2023-05-31T21:22:28.912Z,18.25
2023-05-31T21:24:55.592Z,16.35
2023-05-31T21:27:22.266Z,19.05
2023-05-31T21:29:48.842Z,14.13
2023-05-31T21:32:15.359Z,17.95
2023-05-31T21:34:41.954Z,17.98
2023-05-31T21:37:08.753Z,22.25
2023-05-31T21:39:35.438Z,17.75
2023-05-31T21:42:03.041Z,18.60
2023-05-31T21:44:29.792Z,16.77
2023-05-31T21:46:56.502Z,15.88
2023-05-31T21:49:23.087Z,19.75
2023-05-31T21:51:49.621Z,16.35
2023-05-31T21:54:16.210Z,19.45
2023-05-31T21:56:42.737Z,17.20
2023-05-31T21:59:09.606Z,20.65
2023-05-31T22:01:36.248Z,16.13
2023-05-31T22:04:02.990Z,16.83
2023-05-31T22:06:29.561Z,19.08
2023-05-31T22:08:57.473Z,20.02
2023-05-31T22:11:24.106Z,21.75
2023-05-31T22:13:51.040Z,17.60
2023-05-31T22:16:22.168Z,19.25
2023-05-31T22:18:52.207Z,19.23
2023-05-31T22:21:21.635Z,17.65
2023-05-31T22:23:49.262Z,20.50
2023-05-31T22:26:20.591Z,16.83
2023-05-31T22:28:47.884Z,18.20
2023-05-31T22:31:14.462Z,15.68
2023-05-31T22:33:41.475Z,14.40
2023-05-31T22:36:08.275Z,24.13
2023-05-31T22:38:35.292Z,19.30
2023-05-31T22:41:01.971Z,23.63
2023-05-31T22:43:28.771Z,19.73
2023-05-31T22:45:55.491Z,22.73
2023-05-31T22:48:22.177Z,17.85
2023-05-31T22:50:50.499Z,17.38
2023-05-31T22:53:17.137Z,20.42
2023-05-31T22:55:43.666Z,22.52
2023-05-31T22:58:10.315Z,19.75
2023-05-31T23:00:36.970Z,20.23
2023-05-31T23:03:03.953Z,19.10
2023-05-31T23:05:30.724Z,21.85
2023-05-31T23:08:02.812Z,18.15
2023-05-31T23:10:33.286Z,26.83
2023-05-31T23:13:04.632Z,25.42
2023-05-31T23:15:36.784Z,24.45
2023-05-31T23:18:08.352Z,22.35
2023-05-31T23:20:39.333Z,19.55
2023-05-31T23:23:07.885Z,21.83
2023-05-31T23:25:34.719Z,23.98
2023-05-31T23:28:01.609Z,21.13
2023-05-31T23:30:28.270Z,19.85
2023-05-31T23:32:54.943Z,20.83
2023-05-31T23:35:21.667Z,26.15
2023-05-31T23:37:48.440Z,22.13
2023-05-31T23:40:14.955Z,20.13
2023-05-31T23:42:41.711Z,20.13
2023-05-31T23:45:08.445Z,22.42
2023-05-31T23:47:35.137Z,21.42
2023-05-31T23:50:01.909Z,20.08
2023-05-31T23:52:28.563Z,22.00
2023-05-31T23:54:55.080Z,20.67
2023-05-31T23:57:21.904Z,19.17
2023-05-31T23:59:48.556Z,19.08
